sensor_id;sensor_type;location;lat;lon;timestamp;temperature;humidity
46335;DHT22;32051;48.882;9.210;2023-02-28T13:09:12;16.60;63.70
46335;DHT22;32051;48.882;9.210;2023-02-28T13:11:48;16.80;62.60
46335;DHT22;32051;48.882;9.210;2023-02-28T13:19:36;17.50;62.10
46335;DHT22;32051;48.882;9.210;2023-02-28T13:22:03;17.30;88.20
46335;DHT22;32051;48.882;9.210;2023-02-28T13:29:38;16.40;94.40
46335;DHT22;32051;48.882;9.210;2023-02-28T13:37:35;15.30;61.90
46335;DHT22;32051;48.882;9.210;2023-02-28T13:47:44;15.50;63.00
46335;DHT22;32051;48.882;9.210;2023-02-28T14:06:32;13.40;83.50
46335;DHT22;32051;48.882;9.210;2023-02-28T14:11:37;11.70;67.50
46335;DHT22;32051;48.882;9.210;2023-02-28T14:19:24;9.60;72.80
46335;DHT22;32051;48.882;9.210;2023-02-28T14:27:11;9.00;76.90
46335;DHT22;32051;48.882;9.210;2023-02-28T15:15:02;7.20;84.90
46335;DHT22;32051;48.882;9.210;2023-02-28T15:17:28;7.00;85.50
46335;DHT22;32051;48.882;9.210;2023-02-28T15:19:55;6.90;86.00
46335;DHT22;32051;48.882;9.210;2023-02-28T15:22:28;6.90;85.20
46335;DHT22;32051;48.882;9.210;2023-02-28T15:24:55;6.80;85.90
46335;DHT22;32051;48.882;9.210;2023-02-28T15:27:29;6.70;87.00
46335;DHT22;32051;48.882;9.210;2023-02-28T15:30:00;6.70;89.00
46335;DHT22;32051;48.882;9.210;2023-02-28T15:32:35;6.70;88.10
46335;DHT22;32051;48.882;9.210;2023-02-28T15:35:37;6.70;88.10
46335;DHT22;32051;48.882;9.210;2023-02-28T15:38:24;6.60;88.30
46335;DHT22;32051;48.882;9.210;2023-02-28T15:40:53;6.60;87.80
46335;DHT22;32051;48.882;9.210;2023-02-28T15:43:35;6.50;88.40
46335;DHT22;32051;48.882;9.210;2023-02-28T15:46:03;6.40;89.20
46335;DHT22;32051;48.882;9.210;2023-02-28T15:48:31;6.30;89.30
46335;DHT22;32051;48.882;9.210;2023-02-28T15:53:28;6.30;90.00
46335;DHT22;32051;48.882;9.210;2023-02-28T15:56:03;6.10;90.40
46335;DHT22;32051;48.882;9.210;2023-02-28T15:58:30;6.10;90.40
46335;DHT22;32051;48.882;9.210;2023-02-28T16:01:15;6.00;90.90
46335;DHT22;32051;48.882;9.210;2023-02-28T16:03:45;5.90;91.40
46335;DHT22;32051;48.882;9.210;2023-02-28T16:06:37;5.90;91.40
46335;DHT22;32051;48.882;9.210;2023-02-28T16:09:05;5.80;91.80
46335;DHT22;32051;48.882;9.210;2023-02-28T16:11:34;5.70;92.30
46335;DHT22;32051;48.882;9.210;2023-02-28T16:14:00;5.70;92.30
46335;DHT22;32051;48.882;9.210;2023-02-28T16:16:26;5.60;92.30
46335;DHT22;32051;48.882;9.210;2023-02-28T16:18:52;5.50;92.40
46335;DHT22;32051;48.882;9.210;2023-02-28T16:21:18;5.50;93.00
46335;DHT22;32051;48.882;9.210;2023-02-28T16:23:43;5.40;93.20
46335;DHT22;32051;48.882;9.210;2023-02-28T16:28:43;5.20;93.10
46335;DHT22;32051;48.882;9.210;2023-02-28T17:10:34;4.00;99.90
46335;DHT22;32051;48.882;9.210;2023-02-28T17:13:01;4.00;96.30
46335;DHT22;32051;48.882;9.210;2023-02-28T17:15:26;3.90;96.60
46335;DHT22;32051;48.882;9.210;2023-02-28T17:17:52;3.80;97.00
46335;DHT22;32051;48.882;9.210;2023-02-28T17:20:20;3.70;97.20
46335;DHT22;32051;48.882;9.210;2023-02-28T17:22:50;3.60;97.50
46335;DHT22;32051;48.882;9.210;2023-02-28T17:25:16;3.60;97.70
46335;DHT22;32051;48.882;9.210;2023-02-28T17:27:43;3.50;97.90
46335;DHT22;32051;48.882;9.210;2023-02-28T17:32:37;3.40;98.20
46335;DHT22;32051;48.882;9.210;2023-02-28T17:35:03;3.40;98.40
46335;DHT22;32051;48.882;9.210;2023-02-28T17:37:28;3.30;98.70
46335;DHT22;32051;48.882;9.210;2023-02-28T17:39:54;3.30;98.90
46335;DHT22;32051;48.882;9.210;2023-02-28T17:42:20;3.20;99.10
46335;DHT22;32051;48.882;9.210;2023-02-28T17:44:46;3.20;99.30
46335;DHT22;32051;48.882;9.210;2023-02-28T17:47:12;3.10;99.40
46335;DHT22;32051;48.882;9.210;2023-02-28T17:49:38;3.10;99.40
46335;DHT22;32051;48.882;9.210;2023-02-28T17:52:04;3.00;99.60
46335;DHT22;32051;48.882;9.210;2023-02-28T17:54:29;3.00;99.70
46335;DHT22;32051;48.882;9.210;2023-02-28T17:56:55;2.90;99.90
46335;DHT22;32051;48.882;9.210;2023-02-28T17:59:21;2.90;99.90
46335;DHT22;32051;48.882;9.210;2023-02-28T18:01:46;2.80;99.90
46335;DHT22;32051;48.882;9.210;2023-02-28T18:04:12;2.80;99.90
46335;DHT22;32051;48.882;9.210;2023-02-28T18:06:42;2.80;99.90
46335;DHT22;32051;48.882;9.210;2023-02-28T18:09:19;2.70;99.90
46335;DHT22;32051;48.882;9.210;2023-02-28T18:11:48;2.70;99.90
46335;DHT22;32051;48.882;9.210;2023-02-28T18:14:18;2.70;99.90
46335;DHT22;32051;48.882;9.210;2023-02-28T18:16:45;2.70;99.90
46335;DHT22;32051;48.882;9.210;2023-02-28T18:19:11;2.60;99.90
46335;DHT22;32051;48.882;9.210;2023-02-28T18:21:44;2.60;99.90
46335;DHT22;32051;48.882;9.210;2023-02-28T18:24:11;2.60;99.90
46335;DHT22;32051;48.882;9.210;2023-02-28T18:26:37;2.50;99.90
46335;DHT22;32051;48.882;9.210;2023-02-28T18:31:30;2.50;99.90
46335;DHT22;32051;48.882;9.210;2023-02-28T18:46:15;2.40;99.90
46335;DHT22;32051;48.882;9.210;2023-02-28T18:48:42;2.40;99.90
46335;DHT22;32051;48.882;9.210;2023-02-28T18:51:09;2.40;99.90
46335;DHT22;32051;48.882;9.210;2023-02-28T18:53:36;2.30;99.90
46335;DHT22;32051;48.882;9.210;2023-02-28T18:56:03;2.30;99.90
46335;DHT22;32051;48.882;9.210;2023-02-28T18:58:30;2.30;99.90
46335;DHT22;32051;48.882;9.210;2023-02-28T19:00:58;2.20;99.90
46335;DHT22;32051;48.882;9.210;2023-02-28T19:20:35;2.20;99.90
46335;DHT22;32051;48.882;9.210;2023-02-28T19:23:01;1.90;99.90
46335;DHT22;32051;48.882;9.210;2023-02-28T19:25:27;1.80;99.90
46335;DHT22;32051;48.882;9.210;2023-02-28T19:27:53;1.80;99.90
46335;DHT22;32051;48.882;9.210;2023-02-28T19:30:20;1.80;99.90
46335;DHT22;32051;48.882;9.210;2023-02-28T19:32:46;1.80;99.90
46335;DHT22;32051;48.882;9.210;2023-02-28T19:35:12;1.80;99.90
46335;DHT22;32051;48.882;9.210;2023-02-28T19:37:39;1.70;99.90
46335;DHT22;32051;48.882;9.210;2023-02-28T19:40:10;1.70;99.90
46335;DHT22;32051;48.882;9.210;2023-02-28T19:42:38;1.70;99.90
46335;DHT22;32051;48.882;9.210;2023-02-28T19:45:04;1.60;99.90
46335;DHT22;32051;48.882;9.210;2023-02-28T19:47:31;1.60;99.90
46335;DHT22;32051;48.882;9.210;2023-02-28T20:33:57;1.20;99.90
46335;DHT22;32051;48.882;9.210;2023-02-28T20:36:22;1.00;99.90
46335;DHT22;32051;48.882;9.210;2023-02-28T20:38:49;1.00;99.90
46335;DHT22;32051;48.882;9.210;2023-02-28T20:51:01;1.00;99.90
46335;DHT22;32051;48.882;9.210;2023-02-28T20:53:31;0.90;99.90
46335;DHT22;32051;48.882;9.210;2023-02-28T20:56:06;0.90;99.90
46335;DHT22;32051;48.882;9.210;2023-02-28T20:58:35;0.80;99.90
46335;DHT22;32051;48.882;9.210;2023-02-28T21:01:04;0.80;99.90
46335;DHT22;32051;48.882;9.210;2023-02-28T21:03:40;0.80;99.90
46335;DHT22;32051;48.882;9.210;2023-02-28T21:06:06;0.80;99.90
46335;DHT22;32051;48.882;9.210;2023-02-28T21:08:34;0.80;99.90
46335;DHT22;32051;48.882;9.210;2023-02-28T21:11:00;0.80;99.90
46335;DHT22;32051;48.882;9.210;2023-02-28T21:13:26;0.80;99.90
46335;DHT22;32051;48.882;9.210;2023-02-28T21:15:52;0.80;99.90
46335;DHT22;32051;48.882;9.210;2023-02-28T21:18:18;0.80;99.90
46335;DHT22;32051;48.882;9.210;2023-02-28T21:20:44;0.80;99.90
46335;DHT22;32051;48.882;9.210;2023-02-28T21:23:09;0.80;99.90
46335;DHT22;32051;48.882;9.210;2023-02-28T21:25:35;0.80;99.90
46335;DHT22;32051;48.882;9.210;2023-02-28T21:28:01;0.70;99.90
46335;DHT22;32051;48.882;9.210;2023-02-28T21:30:28;0.70;99.90
46335;DHT22;32051;48.882;9.210;2023-02-28T21:32:54;0.70;99.90
46335;DHT22;32051;48.882;9.210;2023-02-28T21:35:21;0.70;99.90
46335;DHT22;32051;48.882;9.210;2023-02-28T21:37:46;0.70;99.90
46335;DHT22;32051;48.882;9.210;2023-02-28T21:40:12;0.70;99.90
46335;DHT22;32051;48.882;9.210;2023-02-28T21:42:38;0.70;99.90
46335;DHT22;32051;48.882;9.210;2023-02-28T21:45:04;0.70;99.90
46335;DHT22;32051;48.882;9.210;2023-02-28T21:47:29;0.70;99.90
46335;DHT22;32051;48.882;9.210;2023-02-28T21:49:55;0.70;99.90
46335;DHT22;32051;48.882;9.210;2023-02-28T21:52:21;0.70;99.90
46335;DHT22;32051;48.882;9.210;2023-02-28T21:54:47;0.70;99.90
46335;DHT22;32051;48.882;9.210;2023-02-28T21:57:13;0.70;99.90
46335;DHT22;32051;48.882;9.210;2023-02-28T21:59:43;0.70;99.90
46335;DHT22;32051;48.882;9.210;2023-02-28T22:02:10;0.70;99.90
46335;DHT22;32051;48.882;9.210;2023-02-28T22:04:36;0.70;99.90
46335;DHT22;32051;48.882;9.210;2023-02-28T22:07:02;0.60;99.90
46335;DHT22;32051;48.882;9.210;2023-02-28T22:09:28;0.60;99.90
46335;DHT22;32051;48.882;9.210;2023-02-28T22:11:55;0.60;99.90
46335;DHT22;32051;48.882;9.210;2023-02-28T22:14:21;0.60;99.90
46335;DHT22;32051;48.882;9.210;2023-02-28T22:16:47;0.50;99.90
46335;DHT22;32051;48.882;9.210;2023-02-28T22:19:13;0.50;99.90
46335;DHT22;32051;48.882;9.210;2023-02-28T22:21:39;0.50;99.90
46335;DHT22;32051;48.882;9.210;2023-02-28T22:24:07;0.50;99.90
46335;DHT22;32051;48.882;9.210;2023-02-28T22:26:33;0.50;99.90
46335;DHT22;32051;48.882;9.210;2023-02-28T22:28:59;0.40;99.90
46335;DHT22;32051;48.882;9.210;2023-02-28T22:31:29;0.40;99.90
46335;DHT22;32051;48.882;9.210;2023-02-28T22:33:58;0.40;99.90
46335;DHT22;32051;48.882;9.210;2023-02-28T22:36:24;0.40;99.90
46335;DHT22;32051;48.882;9.210;2023-02-28T22:38:51;0.40;99.90
46335;DHT22;32051;48.882;9.210;2023-02-28T22:41:18;0.40;99.90
46335;DHT22;32051;48.882;9.210;2023-02-28T22:43:48;0.40;99.90
46335;DHT22;32051;48.882;9.210;2023-02-28T22:46:14;0.40;99.90
46335;DHT22;32051;48.882;9.210;2023-02-28T22:48:40;0.40;99.90
46335;DHT22;32051;48.882;9.210;2023-02-28T22:51:08;0.40;99.90
46335;DHT22;32051;48.882;9.210;2023-02-28T22:53:36;0.40;99.90
46335;DHT22;32051;48.882;9.210;2023-02-28T22:56:03;0.40;99.90
46335;DHT22;32051;48.882;9.210;2023-02-28T22:58:29;0.40;99.90
46335;DHT22;32051;48.882;9.210;2023-02-28T23:00:55;0.40;99.90
46335;DHT22;32051;48.882;9.210;2023-02-28T23:03:23;0.30;99.90
46335;DHT22;32051;48.882;9.210;2023-02-28T23:05:51;0.40;99.90
46335;DHT22;32051;48.882;9.210;2023-02-28T23:08:17;0.40;99.90
46335;DHT22;32051;48.882;9.210;2023-02-28T23:10:50;0.30;99.90
46335;DHT22;32051;48.882;9.210;2023-02-28T23:13:17;0.30;99.90
46335;DHT22;32051;48.882;9.210;2023-02-28T23:15:43;0.30;99.90
46335;DHT22;32051;48.882;9.210;2023-02-28T23:18:09;0.20;99.90
46335;DHT22;32051;48.882;9.210;2023-02-28T23:20:35;0.30;99.90
46335;DHT22;32051;48.882;9.210;2023-02-28T23:23:00;0.20;99.90
46335;DHT22;32051;48.882;9.210;2023-02-28T23:25:26;0.20;99.90
46335;DHT22;32051;48.882;9.210;2023-02-28T23:27:52;0.20;99.90
46335;DHT22;32051;48.882;9.210;2023-02-28T23:30:18;0.20;99.90
46335;DHT22;32051;48.882;9.210;2023-02-28T23:32:44;0.20;99.90
46335;DHT22;32051;48.882;9.210;2023-02-28T23:35:10;0.20;99.90
46335;DHT22;32051;48.882;9.210;2023-02-28T23:37:37;0.20;99.90
46335;DHT22;32051;48.882;9.210;2023-02-28T23:40:04;0.20;99.90
46335;DHT22;32051;48.882;9.210;2023-02-28T23:42:33;0.20;99.90
46335;DHT22;32051;48.882;9.210;2023-02-28T23:44:58;0.20;99.90
46335;DHT22;32051;48.882;9.210;2023-02-28T23:47:24;0.10;99.90
